Milano, Italy

04:41 PM CET del 03 Dicembre 2016 (GMT +0100)
Via Piave | | Change Station

Alt. 748 ft 45.64 °N, 8.77 °E | Updated 2 minutes ago

Overcast
Coperto
45.9 °F
Sembra 46 °F
N
0.6
Vento Variabile Vento da SSO
Gusts 1.9 mph

Oggi
Massima -- | Minima -- °F
--% Possibilità di precip.
Ieri
Massima -- | Minima -- °F
Precip. -- in
Pressione 30.15 in
Visibilità 4.3 miglia
Nuvole Molto nuvoloso 2000 ft
Coperto 7000 ft
Raffreddamento del vento 46 °F
Punto di rugiada 41 °F
Umidità 82%
Piovosità 0.00 in
Spessore del manto nevoso Non disponibile.
7:47 AM 4:42 PM
Luna crescente, 15% visible
METAR LIMC 031520Z 20002KT 7000 BKN020 OVC070 08/04 Q1021 NOSIG
Pressione 30.15 in
Visibilità 4.3 miglia
Nuvole Molto nuvoloso 2000 ft
Coperto 7000 ft
Raffreddamento del vento 46 °F
Punto di rugiada 41 °F
Umidità 82%
Piovosità 0.00 in
Spessore del manto nevoso Non disponibile.
7:47 AM 4:42 PM
Luna crescente, 15% visible
METAR LIMC 031520Z 20002KT 7000 BKN020 OVC070 08/04 Q1021 NOSIG

10-Day Weather Forecast

×

Almanac

Astronomia

Dec. 03, 2016 Alba Tramonto
Ora attuale
Crepuscolo civile
Crepuscolo nautico
Crepuscolo astronomico
Luna
Estensione della luce visibile
Lunghezza del giorno
Tomorrow will be .
, % of the Moon is Illuminated

Gli estremi di oggi

Massime Regione Minime Regione

Community

WunderPhotos

Upload Photos

1,955,427 foto caricate!

WunderBlog® & News

Nearby

Qualità dell'aria

  Qualità dell'aria Indice AQ Inquinante
Not available.

Profondità neve

Stazione Profondità Altitudine

Attività sismica

Città  Distanza Mag. Data & Ora
Minimo Magnitudo Mostrato è 2.5.

Temperature delle acque costiere

Località Temperatura

Stations

Stazioni meteo nelle vicinanze

Ubicazione della stazione Temp. Raffreddamento del vento Punto di rugiada Umidità Vento Precip. Alt. Aggiornato Tipo